Aviation Digital Data Service (ADDS)

Output produced by METARs form (0932 UTC 24 March 2019)
found at http://www.aviationweather.gov/metar/data/
 
Forecast for: WBGS (SIBU , MY)
Text: TAF WBGS 240500Z 2406/2506 VRB03KT 9999 FEW018
Forecast period: 0600 UTC 24 March 2019 to 0600 UTC 25 March 2019
Forecast type: FROM: standard forecast or significant change
Winds: variable direction winds at 3 MPH (3 knots; 1.5 m/s)
Visibility: 6 or more miles 10+ km)
Ceiling: at least 12,000 feet AGL
Clouds: few clouds at 1800 feet AGL
Weather: no significant weather forecast for this period